sensor_id;sensor_type;location;lat;lon;timestamp;pressure;altitude;pressure_sealevel;temperature
71807;BMP280;59655;42.590;23.364;2023-09-12T00:01:48;91719.25;;;17.06
71807;BMP280;59655;42.590;23.364;2023-09-12T00:04:13;91709.34;;;17.09
71807;BMP280;59655;42.590;23.364;2023-09-12T00:06:39;91716.75;;;16.98
71807;BMP280;59655;42.590;23.364;2023-09-12T00:09:04;91717.44;;;16.99
71807;BMP280;59655;42.590;23.364;2023-09-12T00:11:33;91713.78;;;16.94
71807;BMP280;59655;42.590;23.364;2023-09-12T00:13:59;91718.81;;;17.00
71807;BMP280;59655;42.590;23.364;2023-09-12T00:16:24;91709.28;;;16.97
71807;BMP280;59655;42.590;23.364;2023-09-12T00:18:50;91713.53;;;16.90
71807;BMP280;59655;42.590;23.364;2023-09-12T00:21:15;91714.09;;;16.89
71807;BMP280;59655;42.590;23.364;2023-09-12T00:23:40;91712.25;;;16.91
71807;BMP280;59655;42.590;23.364;2023-09-12T00:26:06;91711.44;;;16.79
71807;BMP280;59655;42.590;23.364;2023-09-12T00:28:31;91720.97;;;16.70
71807;BMP280;59655;42.590;23.364;2023-09-12T00:30:59;91717.31;;;16.66
71807;BMP280;59655;42.590;23.364;2023-09-12T00:33:24;91716.44;;;16.73
71807;BMP280;59655;42.590;23.364;2023-09-12T00:35:50;91721.78;;;16.73
71807;BMP280;59655;42.590;23.364;2023-09-12T00:38:15;91722.38;;;16.71
71807;BMP280;59655;42.590;23.364;2023-09-12T00:40:40;91712.22;;;16.70
71807;BMP280;59655;42.590;23.364;2023-09-12T00:43:06;91716.44;;;16.73
71807;BMP280;59655;42.590;23.364;2023-09-12T00:45:31;91726.19;;;16.68
71807;BMP280;59655;42.590;23.364;2023-09-12T00:47:58;91727.00;;;16.71
71807;BMP280;59655;42.590;23.364;2023-09-12T00:50:25;91725.81;;;16.62
71807;BMP280;59655;42.590;23.364;2023-09-12T00:52:52;91718.31;;;16.61
71807;BMP280;59655;42.590;23.364;2023-09-12T00:55:18;91723.53;;;16.59
71807;BMP280;59655;42.590;23.364;2023-09-12T00:57:44;91725.94;;;16.54
71807;BMP280;59655;42.590;23.364;2023-09-12T01:00:13;91720.78;;;16.37
71807;BMP280;59655;42.590;23.364;2023-09-12T01:02:43;91724.84;;;16.38
71807;BMP280;59655;42.590;23.364;2023-09-12T01:05:10;91724.00;;;16.45
71807;BMP280;59655;42.590;23.364;2023-09-12T01:07:37;91724.72;;;16.46
71807;BMP280;59655;42.590;23.364;2023-09-12T01:10:05;91724.00;;;16.45
71807;BMP280;59655;42.590;23.364;2023-09-12T01:12:31;91725.69;;;16.50
71807;BMP280;59655;42.590;23.364;2023-09-12T01:14:56;91727.66;;;16.50
71807;BMP280;59655;42.590;23.364;2023-09-12T01:17:23;91728.78;;;16.47
71807;BMP280;59655;42.590;23.364;2023-09-12T01:19:49;91724.72;;;16.46
71807;BMP280;59655;42.590;23.364;2023-09-12T01:27:30;91723.06;;;16.21
71807;BMP280;59655;42.590;23.364;2023-09-12T01:30:01;91725.03;;;16.21
71807;BMP280;59655;42.590;23.364;2023-09-12T01:32:29;91727.44;;;16.17
71807;BMP280;59655;42.590;23.364;2023-09-12T01:34:55;91724.63;;;16.05
71807;BMP280;59655;42.590;23.364;2023-09-12T01:37:20;91731.25;;;16.14
71807;BMP280;59655;42.590;23.364;2023-09-12T01:39:45;91736.91;;;16.18
71807;BMP280;59655;42.590;23.364;2023-09-12T01:42:14;91734.63;;;16.24
71807;BMP280;59655;42.590;23.364;2023-09-12T01:44:45;91727.44;;;16.17
71807;BMP280;59655;42.590;23.364;2023-09-12T01:47:12;91733.22;;;16.13
71807;BMP280;59655;42.590;23.364;2023-09-12T01:49:44;91730.66;;;16.15
71807;BMP280;59655;42.590;23.364;2023-09-12T01:52:11;91735.75;;;16.11
71807;BMP280;59655;42.590;23.364;2023-09-12T01:54:38;91736.91;;;16.08
71807;BMP280;59655;42.590;23.364;2023-09-12T01:57:04;91731.13;;;16.02
71807;BMP280;59655;42.590;23.364;2023-09-12T01:59:29;91730.13;;;16.07
71807;BMP280;59655;42.590;23.364;2023-09-12T02:01:55;91739.16;;;16.02
71807;BMP280;59655;42.590;23.364;2023-09-12T02:04:20;91736.19;;;15.98
71807;BMP280;59655;42.590;23.364;2023-09-12T02:06:46;91741.69;;;16.00
71807;BMP280;59655;42.590;23.364;2023-09-12T02:09:11;91736.59;;;16.04
71807;BMP280;59655;42.590;23.364;2023-09-12T02:11:36;91738.72;;;16.05
71807;BMP280;59655;42.590;23.364;2023-09-12T02:14:02;91740.00;;;15.95
71807;BMP280;59655;42.590;23.364;2023-09-12T02:16:29;91740.16;;;15.87
71807;BMP280;59655;42.590;23.364;2023-09-12T02:18:54;91738.75;;;15.86
71807;BMP280;59655;42.590;23.364;2023-09-12T02:21:20;91733.66;;;15.90
71807;BMP280;59655;42.590;23.364;2023-09-12T02:23:45;91736.50;;;15.92
71807;BMP280;59655;42.590;23.364;2023-09-12T02:26:10;91739.00;;;15.90
71807;BMP280;59655;42.590;23.364;2023-09-12T02:28:36;91742.09;;;15.77
71807;BMP280;59655;42.590;23.364;2023-09-12T02:31:01;91748.59;;;15.83
71807;BMP280;59655;42.590;23.364;2023-09-12T02:33:26;91747.31;;;15.84
71807;BMP280;59655;42.590;23.364;2023-09-12T02:35:52;91746.19;;;15.87
71807;BMP280;59655;42.590;23.364;2023-09-12T02:38:18;91746.91;;;15.78
71807;BMP280;59655;42.590;23.364;2023-09-12T02:40:43;91753.97;;;15.74
71807;BMP280;59655;42.590;23.364;2023-09-12T02:43:09;91746.47;;;15.72
71807;BMP280;59655;42.590;23.364;2023-09-12T02:45:34;91746.34;;;15.60
71807;BMP280;59655;42.590;23.364;2023-09-12T02:47:59;91743.81;;;15.62
71807;BMP280;59655;42.590;23.364;2023-09-12T02:50:25;91738.16;;;15.49
71807;BMP280;59655;42.590;23.364;2023-09-12T02:52:50;91740.72;;;15.56
71807;BMP280;59655;42.590;23.364;2023-09-12T02:55:16;91742.66;;;15.56
71807;BMP280;59655;42.590;23.364;2023-09-12T02:57:41;91743.53;;;15.58
71807;BMP280;59655;42.590;23.364;2023-09-12T03:00:07;91740.59;;;15.64
71807;BMP280;59655;42.590;23.364;2023-09-12T03:02:34;91745.06;;;15.61
71807;BMP280;59655;42.590;23.364;2023-09-12T03:04:59;91744.22;;;15.59
71807;BMP280;59655;42.590;23.364;2023-09-12T03:07:26;91738.59;;;15.55
71807;BMP280;59655;42.590;23.364;2023-09-12T03:09:52;91744.47;;;15.53
71807;BMP280;59655;42.590;23.364;2023-09-12T03:12:17;91740.28;;;15.50
71807;BMP280;59655;42.590;23.364;2023-09-12T03:14:42;91747.31;;;15.46
71807;BMP280;59655;42.590;23.364;2023-09-12T03:17:08;91737.44;;;15.38
71807;BMP280;59655;42.590;23.364;2023-09-12T03:19:33;91738.44;;;15.43
71807;BMP280;59655;42.590;23.364;2023-09-12T03:21:59;91738.16;;;15.39
71807;BMP280;59655;42.590;23.364;2023-09-12T03:24:24;91740.28;;;15.40
71807;BMP280;59655;42.590;23.364;2023-09-12T03:26:51;91744.34;;;15.41
71807;BMP280;59655;42.590;23.364;2023-09-12T03:29:16;91741.25;;;15.45
71807;BMP280;59655;42.590;23.364;2023-09-12T03:31:42;91739.97;;;15.46
71807;BMP280;59655;42.590;23.364;2023-09-12T03:34:07;91740.56;;;15.45
71807;BMP280;59655;42.590;23.364;2023-09-12T03:36:32;91735.47;;;15.49
71807;BMP280;59655;42.590;23.364;2023-09-12T03:38:58;91738.44;;;15.43
71807;BMP280;59655;42.590;23.364;2023-09-12T03:41:23;91742.22;;;15.50
71807;BMP280;59655;42.590;23.364;2023-09-12T03:43:53;91741.81;;;15.53
71807;BMP280;59655;42.590;23.364;2023-09-12T03:46:18;91751.25;;;15.54
71807;BMP280;59655;42.590;23.364;2023-09-12T03:48:44;91746.19;;;15.49
71807;BMP280;59655;42.590;23.364;2023-09-12T03:51:11;91745.63;;;15.40
71807;BMP280;59655;42.590;23.364;2023-09-12T03:53:36;91742.06;;;15.38
71807;BMP280;59655;42.590;23.364;2023-09-12T03:56:01;91743.66;;;15.41
71807;BMP280;59655;42.590;23.364;2023-09-12T03:58:27;91740.41;;;15.43
71807;BMP280;59655;42.590;23.364;2023-09-12T04:00:53;91747.13;;;15.34
71807;BMP280;59655;42.590;23.364;2023-09-12T04:03:19;91744.47;;;15.34
71807;BMP280;59655;42.590;23.364;2023-09-12T04:05:46;91749.09;;;15.24
71807;BMP280;59655;42.590;23.364;2023-09-12T04:08:12;91745.13;;;15.25
71807;BMP280;59655;42.590;23.364;2023-09-12T04:10:38;91743.75;;;15.24
71807;BMP280;59655;42.590;23.364;2023-09-12T04:13:03;91740.03;;;15.19
71807;BMP280;59655;42.590;23.364;2023-09-12T04:15:28;91738.97;;;15.22
71807;BMP280;59655;42.590;23.364;2023-09-12T04:17:54;91746.44;;;15.24
71807;BMP280;59655;42.590;23.364;2023-09-12T04:20:19;91740.47;;;15.15
71807;BMP280;59655;42.590;23.364;2023-09-12T04:22:45;91741.97;;;14.99
71807;BMP280;59655;42.590;23.364;2023-09-12T04:25:10;91743.72;;;15.14
71807;BMP280;59655;42.590;23.364;2023-09-12T04:27:36;91746.13;;;15.19
71807;BMP280;59655;42.590;23.364;2023-09-12T04:30:02;91747.94;;;15.17
71807;BMP280;59655;42.590;23.364;2023-09-12T04:32:28;91747.41;;;15.18
71807;BMP280;59655;42.590;23.364;2023-09-12T04:34:53;91750.34;;;15.23
71807;BMP280;59655;42.590;23.364;2023-09-12T04:37:19;91757.13;;;15.24
71807;BMP280;59655;42.590;23.364;2023-09-12T04:39:45;91753.41;;;15.19
71807;BMP280;59655;42.590;23.364;2023-09-12T04:42:10;91755.16;;;15.24
71807;BMP280;59655;42.590;23.364;2023-09-12T04:44:38;91756.84;;;15.29
71807;BMP280;59655;42.590;23.364;2023-09-12T04:47:04;91757.69;;;15.32
71807;BMP280;59655;42.590;23.364;2023-09-12T04:49:29;91753.31;;;15.36
71807;BMP280;59655;42.590;23.364;2023-09-12T04:51:54;91761.34;;;15.36
71807;BMP280;59655;42.590;23.364;2023-09-12T04:54:20;91745.63;;;15.40
71807;BMP280;59655;42.590;23.364;2023-09-12T04:56:45;91748.56;;;15.35
71807;BMP280;59655;42.590;23.364;2023-09-12T04:59:11;91752.06;;;15.37
71807;BMP280;59655;42.590;23.364;2023-09-12T05:01:36;91749.13;;;15.43
71807;BMP280;59655;42.590;23.364;2023-09-12T05:04:02;91747.31;;;15.46
71807;BMP280;59655;42.590;23.364;2023-09-12T05:06:28;91753.66;;;15.50
71807;BMP280;59655;42.590;23.364;2023-09-12T05:08:54;91753.19;;;15.54
71807;BMP280;59655;42.590;23.364;2023-09-12T05:11:19;91752.94;;;15.59
71807;BMP280;59655;42.590;23.364;2023-09-12T05:13:44;91752.94;;;15.59
71807;BMP280;59655;42.590;23.364;2023-09-12T05:16:10;91751.97;;;15.64
71807;BMP280;59655;42.590;23.364;2023-09-12T05:18:35;91754.94;;;15.69
71807;BMP280;59655;42.590;23.364;2023-09-12T05:21:00;91760.84;;;15.67
71807;BMP280;59655;42.590;23.364;2023-09-12T05:23:27;91759.97;;;15.64
71807;BMP280;59655;42.590;23.364;2023-09-12T05:25:53;91754.63;;;15.64
71807;BMP280;59655;42.590;23.364;2023-09-12T05:28:18;91758.16;;;15.67
71807;BMP280;59655;42.590;23.364;2023-09-12T05:30:44;91755.63;;;15.69
71807;BMP280;59655;42.590;23.364;2023-09-12T05:33:09;91751.84;;;15.72
71807;BMP280;59655;42.590;23.364;2023-09-12T05:35:35;91766.78;;;15.75
71807;BMP280;59655;42.590;23.364;2023-09-12T05:38:02;91760.97;;;15.79
71807;BMP280;59655;42.590;23.364;2023-09-12T05:40:27;91769.88;;;15.81
71807;BMP280;59655;42.590;23.364;2023-09-12T05:42:53;91769.31;;;15.83
71807;BMP280;59655;42.590;23.364;2023-09-12T05:45:18;91768.31;;;15.88
71807;BMP280;59655;42.590;23.364;2023-09-12T05:47:44;91769.72;;;15.89
71807;BMP280;59655;42.590;23.364;2023-09-12T05:50:09;91779.00;;;15.88
71807;BMP280;59655;42.590;23.364;2023-09-12T05:52:35;91772.41;;;15.89
71807;BMP280;59655;42.590;23.364;2023-09-12T05:55:00;91773.97;;;15.92
71807;BMP280;59655;42.590;23.364;2023-09-12T05:57:26;91774.97;;;15.97
71807;BMP280;59655;42.590;23.364;2023-09-12T05:59:51;91777.22;;;16.00
71807;BMP280;59655;42.590;23.364;2023-09-12T06:02:16;91774.69;;;16.02
71807;BMP280;59655;42.590;23.364;2023-09-12T06:04:43;91774.06;;;16.04
71807;BMP280;59655;42.590;23.364;2023-09-12T06:07:08;91773.66;;;16.07
71807;BMP280;59655;42.590;23.364;2023-09-12T06:09:34;91777.78;;;16.08
71807;BMP280;59655;42.590;23.364;2023-09-12T06:11:59;91783.25;;;16.10
71807;BMP280;59655;42.590;23.364;2023-09-12T06:14:24;91782.13;;;16.14
71807;BMP280;59655;42.590;23.364;2023-09-12T06:16:50;91783.41;;;16.13
71807;BMP280;59655;42.590;23.364;2023-09-12T06:19:15;91785.66;;;16.16
71807;BMP280;59655;42.590;23.364;2023-09-12T06:21:41;91785.66;;;16.16
71807;BMP280;59655;42.590;23.364;2023-09-12T06:24:19;91793.25;;;16.20
71807;BMP280;59655;42.590;23.364;2023-09-12T06:26:46;91784.63;;;16.21
71807;BMP280;59655;42.590;23.364;2023-09-12T06:29:11;91786.22;;;16.24
71807;BMP280;59655;42.590;23.364;2023-09-12T06:31:38;91794.38;;;16.26
71807;BMP280;59655;42.590;23.364;2023-09-12T06:34:03;91792.69;;;16.31
71807;BMP280;59655;42.590;23.364;2023-09-12T06:36:29;91801.72;;;16.36
71807;BMP280;59655;42.590;23.364;2023-09-12T06:38:58;91795.94;;;16.39
71807;BMP280;59655;42.590;23.364;2023-09-12T06:41:24;91799.28;;;16.40
71807;BMP280;59655;42.590;23.364;2023-09-12T06:43:50;91804.22;;;16.43
71807;BMP280;59655;42.590;23.364;2023-09-12T06:46:15;91801.81;;;16.47
71807;BMP280;59655;42.590;23.364;2023-09-12T06:48:47;91798.59;;;16.49
71807;BMP280;59655;42.590;23.364;2023-09-12T06:51:14;91804.22;;;16.53
71807;BMP280;59655;42.590;23.364;2023-09-12T06:53:40;91814.38;;;16.54
71807;BMP280;59655;42.590;23.364;2023-09-12T06:56:05;91813.19;;;16.58
71807;BMP280;59655;42.590;23.364;2023-09-12T06:58:31;91815.34;;;16.59
71807;BMP280;59655;42.590;23.364;2023-09-12T07:01:04;91819.00;;;16.64
71807;BMP280;59655;42.590;23.364;2023-09-12T07:03:34;91812.38;;;16.65
71807;BMP280;59655;42.590;23.364;2023-09-12T07:06:00;91824.63;;;16.68
71807;BMP280;59655;42.590;23.364;2023-09-12T07:08:26;91821.94;;;16.68
71807;BMP280;59655;42.590;23.364;2023-09-12T07:10:51;91819.41;;;16.70
71807;BMP280;59655;42.590;23.364;2023-09-12T07:13:21;91816.88;;;16.72
71807;BMP280;59655;42.590;23.364;2023-09-12T07:15:46;91818.41;;;16.75
71807;BMP280;59655;42.590;23.364;2023-09-12T07:18:11;91833.91;;;16.76
71807;BMP280;59655;42.590;23.364;2023-09-12T07:20:37;91827.31;;;16.77
71807;BMP280;59655;42.590;23.364;2023-09-12T07:23:02;91826.00;;;16.78
71807;BMP280;59655;42.590;23.364;2023-09-12T07:25:28;91832.94;;;16.82
71807;BMP280;59655;42.590;23.364;2023-09-12T07:27:53;91828.97;;;16.83
71807;BMP280;59655;42.590;23.364;2023-09-12T07:30:19;91835.72;;;16.84
71807;BMP280;59655;42.590;23.364;2023-09-12T07:32:45;91833.19;;;16.86
71807;BMP280;59655;42.590;23.364;2023-09-12T07:35:11;91835.44;;;16.89
71807;BMP280;59655;42.590;23.364;2023-09-12T07:37:36;91832.91;;;16.91
71807;BMP280;59655;42.590;23.364;2023-09-12T07:40:02;91831.19;;;16.96
71807;BMP280;59655;42.590;23.364;2023-09-12T07:42:34;91837.28;;;16.96
71807;BMP280;59655;42.590;23.364;2023-09-12T07:44:59;91836.00;;;16.97
71807;BMP280;59655;42.590;23.364;2023-09-12T07:47:25;91826.81;;;17.00
71807;BMP280;59655;42.590;23.364;2023-09-12T07:49:53;91835.81;;;17.05
71807;BMP280;59655;42.590;23.364;2023-09-12T07:52:19;91828.59;;;17.08
71807;BMP280;59655;42.590;23.364;2023-09-12T07:54:44;91831.28;;;17.08
71807;BMP280;59655;42.590;23.364;2023-09-12T07:57:10;91832.28;;;17.12
71807;BMP280;59655;42.590;23.364;2023-09-12T07:59:35;91835.75;;;17.15
71807;BMP280;59655;42.590;23.364;2023-09-12T08:02:00;91835.75;;;17.15
71807;BMP280;59655;42.590;23.364;2023-09-12T08:04:26;91833.22;;;17.17
71807;BMP280;59655;42.590;23.364;2023-09-12T08:06:51;91831.97;;;17.18
71807;BMP280;59655;42.590;23.364;2023-09-12T08:09:17;91834.78;;;17.20
71807;BMP280;59655;42.590;23.364;2023-09-12T08:11:42;91830.81;;;17.21
71807;BMP280;59655;42.590;23.364;2023-09-12T08:14:07;91834.22;;;17.21
71807;BMP280;59655;42.590;23.364;2023-09-12T08:16:33;91835.16;;;17.26
71807;BMP280;59655;42.590;23.364;2023-09-12T08:18:58;91841.50;;;17.31
71807;BMP280;59655;42.590;23.364;2023-09-12T08:21:23;91843.47;;;17.30
71807;BMP280;59655;42.590;23.364;2023-09-12T08:23:49;91845.03;;;17.33
71807;BMP280;59655;42.590;23.364;2023-09-12T08:26:14;91840.50;;;17.36
71807;BMP280;59655;42.590;23.364;2023-09-12T08:28:40;91849.78;;;17.35
71807;BMP280;59655;42.590;23.364;2023-09-12T08:31:05;91845.84;;;17.36
71807;BMP280;59655;42.590;23.364;2023-09-12T08:33:31;91841.31;;;17.38
71807;BMP280;59655;42.590;23.364;2023-09-12T08:35:56;91837.50;;;17.41
71807;BMP280;59655;42.590;23.364;2023-09-12T08:38:21;91834.25;;;17.43
71807;BMP280;59655;42.590;23.364;2023-09-12T08:40:51;91834.50;;;17.47
71807;BMP280;59655;42.590;23.364;2023-09-12T08:43:16;91834.06;;;17.51
71807;BMP280;59655;42.590;23.364;2023-09-12T08:45:42;91828.13;;;17.52
71807;BMP280;59655;42.590;23.364;2023-09-12T08:48:11;91832.34;;;17.55
71807;BMP280;59655;42.590;23.364;2023-09-12T08:50:37;91829.22;;;17.59
71807;BMP280;59655;42.590;23.364;2023-09-12T08:53:03;91827.91;;;17.60
71807;BMP280;59655;42.590;23.364;2023-09-12T08:55:29;91827.34;;;17.61
71807;BMP280;59655;42.590;23.364;2023-09-12T08:57:55;91833.44;;;17.62
71807;BMP280;59655;42.590;23.364;2023-09-12T09:00:22;91831.59;;;17.64
71807;BMP280;59655;42.590;23.364;2023-09-12T09:02:48;91830.59;;;17.69
71807;BMP280;59655;42.590;23.364;2023-09-12T09:05:14;91827.44;;;17.73
71807;BMP280;59655;42.590;23.364;2023-09-12T09:07:42;91831.09;;;17.78
71807;BMP280;59655;42.590;23.364;2023-09-12T09:10:14;91827.13;;;17.79
71807;BMP280;59655;42.590;23.364;2023-09-12T09:12:43;91834.47;;;17.78
71807;BMP280;59655;42.590;23.364;2023-09-12T09:15:29;91836.47;;;17.78
71807;BMP280;59655;42.590;23.364;2023-09-12T09:17:56;91825.84;;;17.80
71807;BMP280;59655;42.590;23.364;2023-09-12T09:20:25;91826.66;;;17.82
71807;BMP280;59655;42.590;23.364;2023-09-12T09:23:30;91834.97;;;17.86
71807;BMP280;59655;42.590;23.364;2023-09-12T09:25:51;91827.44;;;17.94
71807;BMP280;59655;42.590;23.364;2023-09-12T09:28:20;91830.50;;;18.01
71807;BMP280;59655;42.590;23.364;2023-09-12T09:30:47;91829.94;;;18.02
71807;BMP280;59655;42.590;23.364;2023-09-12T09:33:13;91824.72;;;18.04
71807;BMP280;59655;42.590;23.364;2023-09-12T09:35:46;91820.00;;;18.05
71807;BMP280;59655;42.590;23.364;2023-09-12T09:38:12;91818.72;;;18.06
71807;BMP280;59655;42.590;23.364;2023-09-12T09:40:42;91820.13;;;18.07
71807;BMP280;59655;42.590;23.364;2023-09-12T09:43:08;91821.66;;;18.10
71807;BMP280;59655;42.590;23.364;2023-09-12T09:45:43;91815.25;;;18.15
71807;BMP280;59655;42.590;23.364;2023-09-12T09:48:09;91819.59;;;18.20
71807;BMP280;59655;42.590;23.364;2023-09-12T09:50:35;91818.31;;;18.21
71807;BMP280;59655;42.590;23.364;2023-09-12T09:53:02;91823.00;;;18.21
71807;BMP280;59655;42.590;23.364;2023-09-12T09:55:30;91811.22;;;18.26
71807;BMP280;59655;42.590;23.364;2023-09-12T09:57:55;91813.97;;;18.37
71807;BMP280;59655;42.590;23.364;2023-09-12T10:00:22;91808.59;;;18.37
71807;BMP280;59655;42.590;23.364;2023-09-12T10:02:49;91811.13;;;18.35
71807;BMP280;59655;42.590;23.364;2023-09-12T10:05:15;91808.59;;;18.49
71807;BMP280;59655;42.590;23.364;2023-09-12T10:07:46;91808.13;;;18.53
71807;BMP280;59655;42.590;23.364;2023-09-12T10:10:12;91804.16;;;18.54
71807;BMP280;59655;42.590;23.364;2023-09-12T10:12:43;91808.16;;;18.64
71807;BMP280;59655;42.590;23.364;2023-09-12T10:15:11;91794.97;;;18.57
71807;BMP280;59655;42.590;23.364;2023-09-12T10:17:39;91795.19;;;18.61
71807;BMP280;59655;42.590;23.364;2023-09-12T10:20:15;91795.88;;;18.61
71807;BMP280;59655;42.590;23.364;2023-09-12T10:22:52;91792.50;;;18.61
71807;BMP280;59655;42.590;23.364;2023-09-12T10:25:21;91794.03;;;18.76
71807;BMP280;59655;42.590;23.364;2023-09-12T10:27:48;91795.88;;;18.73
71807;BMP280;59655;42.590;23.364;2023-09-12T10:30:14;91785.13;;;18.73
71807;BMP280;59655;42.590;23.364;2023-09-12T10:32:41;91785.84;;;18.74
71807;BMP280;59655;42.590;23.364;2023-09-12T10:35:09;91789.34;;;18.76
71807;BMP280;59655;42.590;23.364;2023-09-12T10:37:35;91790.91;;;18.79
71807;BMP280;59655;42.590;23.364;2023-09-12T10:40:02;91785.75;;;18.83
71807;BMP280;59655;42.590;23.364;2023-09-12T10:42:32;91786.91;;;18.80
71807;BMP280;59655;42.590;23.364;2023-09-12T10:44:59;91781.78;;;18.84
71807;BMP280;59655;42.590;23.364;2023-09-12T10:47:25;91783.41;;;18.89
71807;BMP280;59655;42.590;23.364;2023-09-12T10:49:51;91780.50;;;18.97
71807;BMP280;59655;42.590;23.364;2023-09-12T10:52:27;91781.03;;;19.31
71807;BMP280;59655;42.590;23.364;2023-09-12T10:54:53;91778.00;;;19.25
71807;BMP280;59655;42.590;23.364;2023-09-12T10:57:19;91772.41;;;19.21
71807;BMP280;59655;42.590;23.364;2023-09-12T11:02:41;91768.06;;;19.27
71807;BMP280;59655;42.590;23.364;2023-09-12T11:07:56;91770.03;;;19.27
71807;BMP280;59655;42.590;23.364;2023-09-12T11:10:23;91764.44;;;19.23
71807;BMP280;59655;42.590;23.364;2023-09-12T11:12:58;91757.53;;;19.31
71807;BMP280;59655;42.590;23.364;2023-09-12T11:15:26;91761.50;;;19.30
71807;BMP280;59655;42.590;23.364;2023-09-12T11:18:04;91762.34;;;19.33
71807;BMP280;59655;42.590;23.364;2023-09-12T11:20:50;91761.47;;;19.42
71807;BMP280;59655;42.590;23.364;2023-09-12T11:23:16;91757.25;;;19.51
71807;BMP280;59655;42.590;23.364;2023-09-12T11:25:43;91759.59;;;19.56
71807;BMP280;59655;42.590;23.364;2023-09-12T11:28:08;91749.28;;;19.53
71807;BMP280;59655;42.590;23.364;2023-09-12T11:30:34;91748.69;;;19.54
71807;BMP280;59655;42.590;23.364;2023-09-12T11:33:03;91748.56;;;19.64
71807;BMP280;59655;42.590;23.364;2023-09-12T11:35:29;91742.44;;;19.75
71807;BMP280;59655;42.590;23.364;2023-09-12T11:37:59;91747.31;;;19.79
71807;BMP280;59655;42.590;23.364;2023-09-12T11:42:59;91747.88;;;19.89
71807;BMP280;59655;42.590;23.364;2023-09-12T11:45:25;91736.28;;;19.87
71807;BMP280;59655;42.590;23.364;2023-09-12T11:47:51;91733.69;;;19.89
71807;BMP280;59655;42.590;23.364;2023-09-12T11:50:35;91737.31;;;19.93
71807;BMP280;59655;42.590;23.364;2023-09-12T11:53:05;91733.81;;;19.91
71807;BMP280;59655;42.590;23.364;2023-09-12T11:56:17;91728.84;;;19.99
71807;BMP280;59655;42.590;23.364;2023-09-12T11:58:18;91732.44;;;20.03
71807;BMP280;59655;42.590;23.364;2023-09-12T12:00:52;91738.53;;;20.04
71807;BMP280;59655;42.590;23.364;2023-09-12T12:06:03;91735.63;;;20.25
71807;BMP280;59655;42.590;23.364;2023-09-12T12:08:30;91737.09;;;20.28
71807;BMP280;59655;42.590;23.364;2023-09-12T12:10:56;91729.34;;;20.35
71807;BMP280;59655;42.590;23.364;2023-09-12T12:13:24;91731.03;;;20.42
71807;BMP280;59655;42.590;23.364;2023-09-12T12:15:49;91734.69;;;20.60
71807;BMP280;59655;42.590;23.364;2023-09-12T12:18:15;91733.88;;;20.71
71807;BMP280;59655;42.590;23.364;2023-09-12T12:20:41;91730.09;;;20.76
71807;BMP280;59655;42.590;23.364;2023-09-12T12:23:07;91727.28;;;21.30
71807;BMP280;59655;42.590;23.364;2023-09-12T12:25:33;91730.69;;;21.16
71807;BMP280;59655;42.590;23.364;2023-09-12T12:28:00;91728.56;;;21.29
71807;BMP280;59655;42.590;23.364;2023-09-12T12:30:25;91722.44;;;21.42
71807;BMP280;59655;42.590;23.364;2023-09-12T12:32:51;91722.25;;;21.67
71807;BMP280;59655;42.590;23.364;2023-09-12T12:35:21;91725.56;;;22.11
71807;BMP280;59655;42.590;23.364;2023-09-12T12:37:55;91721.31;;;22.54
71807;BMP280;59655;42.590;23.364;2023-09-12T12:40:23;91728.34;;;23.26
71807;BMP280;59655;42.590;23.364;2023-09-12T12:42:50;91724.31;;;24.56
71807;BMP280;59655;42.590;23.364;2023-09-12T12:45:21;91730.13;;;26.48
71807;BMP280;59655;42.590;23.364;2023-09-12T12:47:51;91728.56;;;28.17
71807;BMP280;59655;42.590;23.364;2023-09-12T12:50:17;91731.84;;;29.26
71807;BMP280;59655;42.590;23.364;2023-09-12T12:52:46;91726.16;;;30.11
71807;BMP280;59655;42.590;23.364;2023-09-12T12:55:13;91722.81;;;30.87
71807;BMP280;59655;42.590;23.364;2023-09-12T12:57:41;91721.22;;;31.51
71807;BMP280;59655;42.590;23.364;2023-09-12T13:00:09;91717.97;;;31.83
71807;BMP280;59655;42.590;23.364;2023-09-12T13:02:36;91715.38;;;32.34
71807;BMP280;59655;42.590;23.364;2023-09-12T13:05:02;91729.81;;;32.39
71807;BMP280;59655;42.590;23.364;2023-09-12T13:07:27;91712.00;;;32.84
71807;BMP280;59655;42.590;23.364;2023-09-12T13:09:53;91721.63;;;33.14
71807;BMP280;59655;42.590;23.364;2023-09-12T13:12:18;91714.03;;;33.39
71807;BMP280;59655;42.590;23.364;2023-09-12T13:14:44;91722.94;;;33.52
71807;BMP280;59655;42.590;23.364;2023-09-12T13:17:09;91715.22;;;33.97
71807;BMP280;59655;42.590;23.364;2023-09-12T13:19:35;91719.44;;;33.72
71807;BMP280;59655;42.590;23.364;2023-09-12T13:22:00;91714.63;;;33.74
71807;BMP280;59655;42.590;23.364;2023-09-12T13:24:26;91718.81;;;33.51
71807;BMP280;59655;42.590;23.364;2023-09-12T13:26:51;91711.28;;;33.39
71807;BMP280;59655;42.590;23.364;2023-09-12T13:29:18;91711.94;;;33.39
71807;BMP280;59655;42.590;23.364;2023-09-12T13:31:44;91709.84;;;33.56
71807;BMP280;59655;42.590;23.364;2023-09-12T13:34:10;91708.50;;;33.47
71807;BMP280;59655;42.590;23.364;2023-09-12T13:36:35;91703.72;;;33.27
71807;BMP280;59655;42.590;23.364;2023-09-12T13:39:01;91705.81;;;33.21
71807;BMP280;59655;42.590;23.364;2023-09-12T13:41:27;91707.84;;;33.38
71807;BMP280;59655;42.590;23.364;2023-09-12T13:43:53;91712.69;;;32.85
71807;BMP280;59655;42.590;23.364;2023-09-12T13:46:18;91702.38;;;32.71
71807;BMP280;59655;42.590;23.364;2023-09-12T13:48:43;91704.41;;;32.79
71807;BMP280;59655;42.590;23.364;2023-09-12T13:51:09;91706.50;;;32.62
71807;BMP280;59655;42.590;23.364;2023-09-12T13:53:34;91712.63;;;32.30
71807;BMP280;59655;42.590;23.364;2023-09-12T13:55:59;91710.56;;;32.24
71807;BMP280;59655;42.590;23.364;2023-09-12T13:58:26;91704.28;;;32.04
71807;BMP280;59655;42.590;23.364;2023-09-12T14:00:52;91711.06;;;31.78
71807;BMP280;59655;42.590;23.364;2023-09-12T14:03:17;91703.28;;;31.40
71807;BMP280;59655;42.590;23.364;2023-09-12T14:05:43;91709.34;;;31.18
71807;BMP280;59655;42.590;23.364;2023-09-12T14:08:08;91710.38;;;30.76
71807;BMP280;59655;42.590;23.364;2023-09-12T14:10:33;91710.81;;;30.52